sensor_id;sensor_type;location;lat;lon;timestamp;pressure;altitude;pressure_sealevel;temperature;humidity
8699;BME280;4386;51.236;6.742;2023-09-30T00:00:31;97482.19;;;21.53;44.23
8699;BME280;4386;51.236;6.742;2023-09-30T00:01:36;97475.19;;;21.47;44.06
8699;BME280;4386;51.236;6.742;2023-09-30T00:02:39;97483.28;;;21.42;44.35
8699;BME280;4386;51.236;6.742;2023-09-30T00:03:44;97476.28;;;21.36;44.08
8699;BME280;4386;51.236;6.742;2023-09-30T00:04:48;97473.03;;;21.29;44.28
8699;BME280;4386;51.236;6.742;2023-09-30T00:05:52;97474.38;;;21.21;44.86
8699;BME280;4386;51.236;6.742;2023-09-30T00:06:56;97479.19;;;21.14;44.89
8699;BME280;4386;51.236;6.742;2023-09-30T00:08:00;97478.13;;;21.10;44.51
8699;BME280;4386;51.236;6.742;2023-09-30T00:09:05;97478.59;;;21.07;44.79
8699;BME280;4386;51.236;6.742;2023-09-30T00:10:10;97465.69;;;21.04;44.74
8699;BME280;4386;51.236;6.742;2023-09-30T00:11:15;97462.97;;;21.04;44.80
8699;BME280;4386;51.236;6.742;2023-09-30T00:12:19;97465.16;;;21.07;45.34
8699;BME280;4386;51.236;6.742;2023-09-30T00:13:25;97471.94;;;21.10;45.29
8699;BME280;4386;51.236;6.742;2023-09-30T00:14:28;97463.03;;;21.14;44.77
8699;BME280;4386;51.236;6.742;2023-09-30T00:15:31;97461.44;;;21.18;45.09
8699;BME280;4386;51.236;6.742;2023-09-30T00:16:35;97467.09;;;21.22;45.28
8699;BME280;4386;51.236;6.742;2023-09-30T00:17:38;97464.16;;;21.23;44.88
8699;BME280;4386;51.236;6.742;2023-09-30T00:18:46;97462.78;;;21.26;44.89
8699;BME280;4386;51.236;6.742;2023-09-30T00:19:49;97456.31;;;21.27;44.78
8699;BME280;4386;51.236;6.742;2023-09-30T00:20:53;97462.78;;;21.26;44.66
8699;BME280;4386;51.236;6.742;2023-09-30T00:21:56;97455.50;;;21.21;44.86
8699;BME280;4386;51.236;6.742;2023-09-30T00:23:00;97460.38;;;21.19;45.26
8699;BME280;4386;51.236;6.742;2023-09-30T00:24:04;97455.50;;;21.16;45.12
8699;BME280;4386;51.236;6.742;2023-09-30T00:25:08;97451.44;;;21.14;45.11
8699;BME280;4386;51.236;6.742;2023-09-30T00:26:11;97457.13;;;21.12;44.67
8699;BME280;4386;51.236;6.742;2023-09-30T00:27:16;97451.19;;;21.10;44.94
8699;BME280;4386;51.236;6.742;2023-09-30T00:28:20;97443.66;;;21.12;44.67
8699;BME280;4386;51.236;6.742;2023-09-30T00:29:24;97456.06;;;21.13;45.01
8699;BME280;4386;51.236;6.742;2023-09-30T00:30:27;97455.25;;;21.13;44.96
8699;BME280;4386;51.236;6.742;2023-09-30T00:31:31;97452.25;;;21.14;44.81
8699;BME280;4386;51.236;6.742;2023-09-30T00:32:35;97450.13;;;21.16;44.87
8699;BME280;4386;51.236;6.742;2023-09-30T00:33:40;97448.78;;;21.19;44.54
8699;BME280;4386;51.236;6.742;2023-09-30T00:34:45;97444.75;;;21.16;45.02
8699;BME280;4386;51.236;6.742;2023-09-30T00:35:49;97451.19;;;21.15;44.85
8699;BME280;4386;51.236;6.742;2023-09-30T00:36:53;97452.25;;;21.14;45.01
8699;BME280;4386;51.236;6.742;2023-09-30T00:37:58;97454.94;;;21.14;44.84
8699;BME280;4386;51.236;6.742;2023-09-30T00:39:03;97457.66;;;21.14;44.44
8699;BME280;4386;51.236;6.742;2023-09-30T00:40:09;97470.88;;;21.16;44.75
8699;BME280;4386;51.236;6.742;2023-09-30T00:41:14;97476.78;;;21.18;44.70
8699;BME280;4386;51.236;6.742;2023-09-30T00:42:18;97473.28;;;21.17;44.14
8699;BME280;4386;51.236;6.742;2023-09-30T00:43:23;97478.13;;;21.15;44.07
8699;BME280;4386;51.236;6.742;2023-09-30T00:44:26;97486.22;;;21.15;44.46
8699;BME280;4386;51.236;6.742;2023-09-30T00:45:30;97484.59;;;21.14;44.77
8699;BME280;4386;51.236;6.742;2023-09-30T00:46:36;97483.50;;;21.15;44.19
8699;BME280;4386;51.236;6.742;2023-09-30T00:47:41;97489.44;;;21.17;44.48
8699;BME280;4386;51.236;6.742;2023-09-30T00:48:44;97484.31;;;21.21;43.93
8699;BME280;4386;51.236;6.742;2023-09-30T00:49:50;97483.78;;;21.24;44.16
8699;BME280;4386;51.236;6.742;2023-09-30T00:50:54;97484.06;;;21.22;43.93
8699;BME280;4386;51.236;6.742;2023-09-30T00:51:59;97476.53;;;21.24;44.08
8699;BME280;4386;51.236;6.742;2023-09-30T00:53:03;97484.88;;;21.23;43.86
8699;BME280;4386;51.236;6.742;2023-09-30T00:54:07;97489.47;;;21.22;43.86
8699;BME280;4386;51.236;6.742;2023-09-30T00:55:11;97485.13;;;21.21;44.12
8699;BME280;4386;51.236;6.742;2023-09-30T00:56:16;97489.72;;;21.21;43.75
8699;BME280;4386;51.236;6.742;2023-09-30T00:57:21;97483.50;;;21.20;43.77
8699;BME280;4386;51.236;6.742;2023-09-30T00:58:26;97484.84;;;21.18;44.01
8699;BME280;4386;51.236;6.742;2023-09-30T00:59:32;97487.31;;;21.19;43.85
8699;BME280;4386;51.236;6.742;2023-09-30T01:00:36;97484.03;;;21.17;43.54
8699;BME280;4386;51.236;6.742;2023-09-30T01:01:40;97483.50;;;21.20;43.65
8699;BME280;4386;51.236;6.742;2023-09-30T01:02:45;97487.81;;;21.21;43.66
8699;BME280;4386;51.236;6.742;2023-09-30T01:03:49;97491.09;;;21.23;43.55
8699;BME280;4386;51.236;6.742;2023-09-30T01:04:55;97482.47;;;21.26;43.61
8699;BME280;4386;51.236;6.742;2023-09-30T01:05:58;97483.00;;;21.28;43.37
8699;BME280;4386;51.236;6.742;2023-09-30T01:07:02;97481.94;;;21.29;43.66
8699;BME280;4386;51.236;6.742;2023-09-30T01:08:06;97479.75;;;21.32;43.77
8699;BME280;4386;51.236;6.742;2023-09-30T01:09:11;97475.19;;;21.32;43.72
8699;BME280;4386;51.236;6.742;2023-09-30T01:10:15;97479.75;;;21.32;43.61
8699;BME280;4386;51.236;6.742;2023-09-30T01:11:21;97468.47;;;21.29;43.92
8699;BME280;4386;51.236;6.742;2023-09-30T01:12:23;97468.72;;;21.28;44.22
8699;BME280;4386;51.236;6.742;2023-09-30T01:13:32;97465.50;;;21.26;44.08
8699;BME280;4386;51.236;6.742;2023-09-30T01:14:35;97460.91;;;21.21;44.23
8699;BME280;4386;51.236;6.742;2023-09-30T01:15:40;97465.75;;;21.19;44.56
8699;BME280;4386;51.236;6.742;2023-09-30T01:16:44;97464.13;;;21.18;44.46
8699;BME280;4386;51.236;6.742;2023-09-30T01:17:48;97457.66;;;21.19;44.51
8699;BME280;4386;51.236;6.742;2023-09-30T01:18:52;97461.19;;;21.20;44.68
8699;BME280;4386;51.236;6.742;2023-09-30T01:19:58;97453.88;;;21.20;44.00
8699;BME280;4386;51.236;6.742;2023-09-30T01:21:03;97453.63;;;21.22;44.29
8699;BME280;4386;51.236;6.742;2023-09-30T01:22:09;97457.38;;;21.21;44.43
8699;BME280;4386;51.236;6.742;2023-09-30T01:23:13;97461.97;;;21.20;44.22
8699;BME280;4386;51.236;6.742;2023-09-30T01:24:17;97454.69;;;21.16;44.10
8699;BME280;4386;51.236;6.742;2023-09-30T01:25:19;97449.56;;;21.09;44.77
8699;BME280;4386;51.236;6.742;2023-09-30T01:26:23;97451.44;;;21.04;44.76
8699;BME280;4386;51.236;6.742;2023-09-30T01:27:26;97457.59;;;20.99;44.69
8699;BME280;4386;51.236;6.742;2023-09-30T01:28:31;97446.31;;;20.97;44.78
8699;BME280;4386;51.236;6.742;2023-09-30T01:29:34;97440.91;;;20.97;44.77
8699;BME280;4386;51.236;6.742;2023-09-30T01:30:41;97445.22;;;20.98;44.55
8699;BME280;4386;51.236;6.742;2023-09-30T01:31:45;97450.34;;;21.00;44.55
8699;BME280;4386;51.236;6.742;2023-09-30T01:32:50;97447.38;;;20.96;45.03
8699;BME280;4386;51.236;6.742;2023-09-30T01:33:53;97446.81;;;20.94;45.17
8699;BME280;4386;51.236;6.742;2023-09-30T01:34:57;97436.56;;;20.91;44.98
8699;BME280;4386;51.236;6.742;2023-09-30T01:36:00;97440.59;;;20.89;45.13
8699;BME280;4386;51.236;6.742;2023-09-30T01:37:04;97441.16;;;20.86;44.95
8699;BME280;4386;51.236;6.742;2023-09-30T01:38:09;97444.38;;;20.83;45.62
8699;BME280;4386;51.236;6.742;2023-09-30T01:39:13;97444.09;;;20.79;45.40
8699;BME280;4386;51.236;6.742;2023-09-30T01:40:16;97447.84;;;20.78;45.17
8699;BME280;4386;51.236;6.742;2023-09-30T01:41:21;97440.88;;;20.77;45.43
8699;BME280;4386;51.236;6.742;2023-09-30T01:42:25;97442.75;;;20.76;45.22
8699;BME280;4386;51.236;6.742;2023-09-30T01:43:29;97444.63;;;20.76;45.48
8699;BME280;4386;51.236;6.742;2023-09-30T01:44:33;97438.44;;;20.75;45.52
8699;BME280;4386;51.236;6.742;2023-09-30T01:45:38;97434.38;;;20.73;45.42
8699;BME280;4386;51.236;6.742;2023-09-30T01:46:44;97438.97;;;20.67;45.74
8699;BME280;4386;51.236;6.742;2023-09-30T01:47:47;97429.50;;;20.60;45.56
8699;BME280;4386;51.236;6.742;2023-09-30T01:48:50;97431.34;;;20.49;45.92
8699;BME280;4386;51.236;6.742;2023-09-30T01:49:53;97431.06;;;20.46;45.98
8699;BME280;4386;51.236;6.742;2023-09-30T01:50:57;97431.34;;;20.44;45.94
8699;BME280;4386;51.236;6.742;2023-09-30T01:52:00;97427.31;;;20.42;46.35
8699;BME280;4386;51.236;6.742;2023-09-30T01:53:05;97433.47;;;20.42;46.57
8699;BME280;4386;51.236;6.742;2023-09-30T01:54:10;97428.91;;;20.38;46.24
8699;BME280;4386;51.236;6.742;2023-09-30T01:55:14;97428.88;;;20.33;46.61
8699;BME280;4386;51.236;6.742;2023-09-30T01:56:17;97419.16;;;20.26;46.89
8699;BME280;4386;51.236;6.742;2023-09-30T01:57:20;97435.78;;;20.23;46.97
8699;BME280;4386;51.236;6.742;2023-09-30T01:58:24;97438.19;;;20.20;47.03
8699;BME280;4386;51.236;6.742;2023-09-30T01:59:27;97430.66;;;20.17;47.13
8699;BME280;4386;51.236;6.742;2023-09-30T02:00:31;97436.84;;;20.17;47.00
8699;BME280;4386;51.236;6.742;2023-09-30T02:01:34;97438.19;;;20.15;46.83
8699;BME280;4386;51.236;6.742;2023-09-30T02:02:38;97439.00;;;20.15;46.72
8699;BME280;4386;51.236;6.742;2023-09-30T02:03:42;97435.78;;;20.18;46.74
8699;BME280;4386;51.236;6.742;2023-09-30T02:04:46;97440.88;;;20.20;46.87
8699;BME280;4386;51.236;6.742;2023-09-30T02:05:49;97436.84;;;20.22;47.00
8699;BME280;4386;51.236;6.742;2023-09-30T02:06:53;97444.41;;;20.25;47.09
8699;BME280;4386;51.236;6.742;2023-09-30T02:07:56;97445.22;;;20.26;47.10
8699;BME280;4386;51.236;6.742;2023-09-30T02:09:00;97441.19;;;20.23;46.87
8699;BME280;4386;51.236;6.742;2023-09-30T02:10:06;97443.31;;;20.21;46.91
8699;BME280;4386;51.236;6.742;2023-09-30T02:11:10;97436.56;;;20.19;47.12
8699;BME280;4386;51.236;6.742;2023-09-30T02:12:13;97437.91;;;20.16;47.02
8699;BME280;4386;51.236;6.742;2023-09-30T02:13:17;97440.59;;;20.16;47.06
8699;BME280;4386;51.236;6.742;2023-09-30T02:14:22;97441.69;;;20.15;46.68
8699;BME280;4386;51.236;6.742;2023-09-30T02:15:27;97443.28;;;20.16;46.68
8699;BME280;4386;51.236;6.742;2023-09-30T02:16:30;97440.59;;;20.16;46.82
8699;BME280;4386;51.236;6.742;2023-09-30T02:17:34;97445.44;;;20.19;46.45
8699;BME280;4386;51.236;6.742;2023-09-30T02:18:37;97446.56;;;20.23;46.73
8699;BME280;4386;51.236;6.742;2023-09-30T02:19:41;97443.38;;;20.26;46.34
8699;BME280;4386;51.236;6.742;2023-09-30T02:20:46;97447.97;;;20.31;46.16
8699;BME280;4386;51.236;6.742;2023-09-30T02:21:48;97442.06;;;20.34;46.29
8699;BME280;4386;51.236;6.742;2023-09-30T02:22:52;97449.06;;;20.35;46.47
8699;BME280;4386;51.236;6.742;2023-09-30T02:23:57;97447.16;;;20.36;46.49
8699;BME280;4386;51.236;6.742;2023-09-30T02:25:01;97436.41;;;20.36;46.61
8699;BME280;4386;51.236;6.742;2023-09-30T02:26:06;97437.78;;;20.38;46.25
8699;BME280;4386;51.236;6.742;2023-09-30T02:27:10;97442.88;;;20.40;46.35
8699;BME280;4386;51.236;6.742;2023-09-30T02:28:13;97443.44;;;20.42;46.17
8699;BME280;4386;51.236;6.742;2023-09-30T02:29:17;97446.69;;;20.44;46.64
8699;BME280;4386;51.236;6.742;2023-09-30T02:30:20;97440.53;;;20.48;46.61
8699;BME280;4386;51.236;6.742;2023-09-30T02:31:24;97445.63;;;20.50;46.56
8699;BME280;4386;51.236;6.742;2023-09-30T02:32:28;97448.31;;;20.50;46.53
8699;BME280;4386;51.236;6.742;2023-09-30T02:33:33;97451.00;;;20.50;46.01
8699;BME280;4386;51.236;6.742;2023-09-30T02:34:38;97455.03;;;20.47;46.45
8699;BME280;4386;51.236;6.742;2023-09-30T02:35:44;97451.00;;;20.45;46.10
8699;BME280;4386;51.236;6.742;2023-09-30T02:36:48;97458.78;;;20.41;46.05
8699;BME280;4386;51.236;6.742;2023-09-30T02:37:52;97450.97;;;20.40;46.11
8699;BME280;4386;51.236;6.742;2023-09-30T02:38:56;97465.22;;;20.40;46.50
8699;BME280;4386;51.236;6.742;2023-09-30T02:40:02;97455.28;;;20.41;46.03
8699;BME280;4386;51.236;6.742;2023-09-30T02:41:09;97454.22;;;20.42;46.32
8699;BME280;4386;51.236;6.742;2023-09-30T02:42:13;97451.25;;;20.43;46.17
8699;BME280;4386;51.236;6.742;2023-09-30T02:43:16;97453.69;;;20.45;45.95
8699;BME280;4386;51.236;6.742;2023-09-30T02:44:20;97451.25;;;20.43;46.35
8699;BME280;4386;51.236;6.742;2023-09-30T02:45:24;97453.13;;;20.43;46.15
8699;BME280;4386;51.236;6.742;2023-09-30T02:46:28;97447.75;;;20.43;46.33
8699;BME280;4386;51.236;6.742;2023-09-30T02:47:32;97446.13;;;20.42;46.71
8699;BME280;4386;51.236;6.742;2023-09-30T02:48:36;97445.31;;;20.41;46.54
8699;BME280;4386;51.236;6.742;2023-09-30T02:49:40;97446.69;;;20.44;46.56
8699;BME280;4386;51.236;6.742;2023-09-30T02:50:43;97452.06;;;20.44;46.51
8699;BME280;4386;51.236;6.742;2023-09-30T02:51:48;97454.75;;;20.44;46.20
8699;BME280;4386;51.236;6.742;2023-09-30T02:52:51;97457.44;;;20.44;46.21
8699;BME280;4386;51.236;6.742;2023-09-30T02:53:55;97457.97;;;20.41;46.09
8699;BME280;4386;51.236;6.742;2023-09-30T02:54:58;97457.16;;;20.40;46.29
8699;BME280;4386;51.236;6.742;2023-09-30T02:56:03;97466.28;;;20.39;45.88
8699;BME280;4386;51.236;6.742;2023-09-30T02:57:08;97466.28;;;20.39;45.78
8699;BME280;4386;51.236;6.742;2023-09-30T02:58:12;97467.09;;;20.40;46.30
8699;BME280;4386;51.236;6.742;2023-09-30T02:59:15;97457.16;;;20.40;45.74
8699;BME280;4386;51.236;6.742;2023-09-30T03:00:21;97470.34;;;20.42;46.35
8699;BME280;4386;51.236;6.742;2023-09-30T03:01:27;97465.22;;;20.40;46.13
8699;BME280;4386;51.236;6.742;2023-09-30T03:02:31;97467.91;;;20.40;46.17
8699;BME280;4386;51.236;6.742;2023-09-30T03:03:33;97469.78;;;20.40;46.14
8699;BME280;4386;51.236;6.742;2023-09-30T03:04:37;97461.44;;;20.36;45.88
8699;BME280;4386;51.236;6.742;2023-09-30T03:05:45;97466.00;;;20.36;46.08
8699;BME280;4386;51.236;6.742;2023-09-30T03:06:50;97467.09;;;20.35;46.38
8699;BME280;4386;51.236;6.742;2023-09-30T03:07:53;97466.00;;;20.36;46.65
8699;BME280;4386;51.236;6.742;2023-09-30T03:08:57;97457.69;;;20.37;46.20
8699;BME280;4386;51.236;6.742;2023-09-30T03:10:00;97461.19;;;20.38;46.35
8699;BME280;4386;51.236;6.742;2023-09-30T03:11:08;97462.00;;;20.38;46.54
8699;BME280;4386;51.236;6.742;2023-09-30T03:12:12;97461.44;;;20.36;46.22
8699;BME280;4386;51.236;6.742;2023-09-30T03:13:16;97463.84;;;20.33;46.47
8699;BME280;4386;51.236;6.742;2023-09-30T03:14:21;97462.25;;;20.32;46.59
8699;BME280;4386;51.236;6.742;2023-09-30T03:15:25;97457.91;;;20.31;46.49
8699;BME280;4386;51.236;6.742;2023-09-30T03:16:28;97461.16;;;20.33;46.61
8699;BME280;4386;51.236;6.742;2023-09-30T03:17:33;97459.53;;;20.32;46.18
8699;BME280;4386;51.236;6.742;2023-09-30T03:18:36;97457.91;;;20.31;46.58
8699;BME280;4386;51.236;6.742;2023-09-30T03:19:40;97456.81;;;20.26;46.71
8699;BME280;4386;51.236;6.742;2023-09-30T03:20:43;97449.25;;;20.23;46.71
8699;BME280;4386;51.236;6.742;2023-09-30T03:21:47;97446.78;;;20.17;46.97
8699;BME280;4386;51.236;6.742;2023-09-30T03:22:50;97447.03;;;20.10;46.86
8699;BME280;4386;51.236;6.742;2023-09-30T03:23:54;97438.91;;;20.00;46.92
8699;BME280;4386;51.236;6.742;2023-09-30T03:24:57;97429.44;;;19.93;46.83
8699;BME280;4386;51.236;6.742;2023-09-30T03:26:03;97437.47;;;19.83;47.02
8699;BME280;4386;51.236;6.742;2023-09-30T03:27:06;97435.25;;;19.69;47.22
8699;BME280;4386;51.236;6.742;2023-09-30T03:28:12;97436.25;;;19.63;47.63
8699;BME280;4386;51.236;6.742;2023-09-30T03:29:17;97427.34;;;19.58;47.76
8699;BME280;4386;51.236;6.742;2023-09-30T03:30:22;97432.44;;;19.54;47.74
8699;BME280;4386;51.236;6.742;2023-09-30T03:31:25;97431.06;;;19.52;48.02
8699;BME280;4386;51.236;6.742;2023-09-30T03:32:30;97436.41;;;19.47;47.94
8699;BME280;4386;51.236;6.742;2023-09-30T03:33:37;97436.91;;;19.44;48.13
8699;BME280;4386;51.236;6.742;2023-09-30T03:34:41;97436.63;;;19.40;48.18
8699;BME280;4386;51.236;6.742;2023-09-30T03:35:48;97443.78;;;19.35;48.30
8699;BME280;4386;51.236;6.742;2023-09-30T03:36:51;97446.69;;;19.28;48.28
8699;BME280;4386;51.236;6.742;2023-09-30T03:38:01;97444.22;;;19.21;48.51
8699;BME280;4386;51.236;6.742;2023-09-30T03:39:04;97436.13;;;19.16;48.67
8699;BME280;4386;51.236;6.742;2023-09-30T03:40:11;97440.38;;;19.12;48.84
8699;BME280;4386;51.236;6.742;2023-09-30T03:41:16;97444.63;;;19.08;48.95
8699;BME280;4386;51.236;6.742;2023-09-30T03:42:22;97442.22;;;19.07;48.90
8699;BME280;4386;51.236;6.742;2023-09-30T03:43:26;97442.53;;;19.10;49.23
8699;BME280;4386;51.236;6.742;2023-09-30T03:44:30;97435.00;;;19.12;49.06
8699;BME280;4386;51.236;6.742;2023-09-30T03:45:33;97442.25;;;19.12;49.20
8699;BME280;4386;51.236;6.742;2023-09-30T03:46:37;97434.19;;;19.12;49.27
8699;BME280;4386;51.236;6.742;2023-09-30T03:47:40;97439.56;;;19.12;49.34
8699;BME280;4386;51.236;6.742;2023-09-30T03:48:46;97436.03;;;19.06;49.34
8699;BME280;4386;51.236;6.742;2023-09-30T03:49:49;97435.19;;;19.01;49.51
8699;BME280;4386;51.236;6.742;2023-09-30T03:50:55;97442.63;;;18.94;49.64
8699;BME280;4386;51.236;6.742;2023-09-30T03:51:58;97439.88;;;18.89;49.80
8699;BME280;4386;51.236;6.742;2023-09-30T03:53:04;97449.03;;;18.88;49.81
8699;BME280;4386;51.236;6.742;2023-09-30T03:54:07;97451.41;;;18.84;49.99
8699;BME280;4386;51.236;6.742;2023-09-30T03:55:13;97452.44;;;18.83;49.68
8699;BME280;4386;51.236;6.742;2023-09-30T03:56:17;97444.41;;;18.83;50.04
8699;BME280;4386;51.236;6.742;2023-09-30T03:57:20;97446.56;;;18.86;49.96
8699;BME280;4386;51.236;6.742;2023-09-30T03:58:26;97442.88;;;18.92;50.14
8699;BME280;4386;51.236;6.742;2023-09-30T03:59:29;97442.94;;;18.97;49.74
8699;BME280;4386;51.236;6.742;2023-09-30T04:00:34;97443.78;;;19.03;49.67
8699;BME280;4386;51.236;6.742;2023-09-30T04:01:38;97440.34;;;19.07;49.67
8699;BME280;4386;51.236;6.742;2023-09-30T04:02:43;97442.25;;;19.12;49.33
8699;BME280;4386;51.236;6.742;2023-09-30T04:03:46;97442.56;;;19.15;49.60
8699;BME280;4386;51.236;6.742;2023-09-30T04:04:49;97441.00;;;19.19;49.16
8699;BME280;4386;51.236;6.742;2023-09-30T04:05:56;97439.41;;;19.23;49.39
8699;BME280;4386;51.236;6.742;2023-09-30T04:06:59;97435.66;;;19.24;49.27
8699;BME280;4386;51.236;6.742;2023-09-30T04:08:03;97429.75;;;19.22;48.81
8699;BME280;4386;51.236;6.742;2023-09-30T04:09:08;97436.94;;;19.17;48.97
8699;BME280;4386;51.236;6.742;2023-09-30T04:10:13;97430.16;;;19.09;49.07
8699;BME280;4386;51.236;6.742;2023-09-30T04:11:17;97427.41;;;19.04;49.47
8699;BME280;4386;51.236;6.742;2023-09-30T04:12:23;97434.91;;;19.02;49.28
8699;BME280;4386;51.236;6.742;2023-09-30T04:13:28;97421.50;;;19.02;49.68
8699;BME280;4386;51.236;6.742;2023-09-30T04:14:31;97434.91;;;19.02;49.46
8699;BME280;4386;51.236;6.742;2023-09-30T04:15:36;97433.28;;;19.01;49.33
8699;BME280;4386;51.236;6.742;2023-09-30T04:16:39;97435.44;;;18.99;49.65
8699;BME280;4386;51.236;6.742;2023-09-30T04:17:44;97436.75;;;18.97;49.72
8699;BME280;4386;51.236;6.742;2023-09-30T04:18:47;97435.63;;;18.93;49.84
8699;BME280;4386;51.236;6.742;2023-09-30T04:19:52;97436.44;;;18.93;49.68
8699;BME280;4386;51.236;6.742;2023-09-30T04:20:55;97439.69;;;18.95;49.87
8699;BME280;4386;51.236;6.742;2023-09-30T04:21:59;97427.34;;;18.94;49.91
8699;BME280;4386;51.236;6.742;2023-09-30T04:23:03;97440.19;;;18.92;49.90
8699;BME280;4386;51.236;6.742;2023-09-30T04:24:07;97436.97;;;18.90;49.72
8699;BME280;4386;51.236;6.742;2023-09-30T04:25:11;97440.19;;;18.92;49.95
8699;BME280;4386;51.236;6.742;2023-09-30T04:26:18;97426.22;;;18.90;49.82
8699;BME280;4386;51.236;6.742;2023-09-30T04:27:22;97430.78;;;18.90;50.04
8699;BME280;4386;51.236;6.742;2023-09-30T04:28:27;97438.78;;;18.85;49.98
8699;BME280;4386;51.236;6.742;2023-09-30T04:29:31;97445.97;;;18.79;50.16
8699;BME280;4386;51.236;6.742;2023-09-30T04:30:36;97441.06;;;18.71;50.24
8699;BME280;4386;51.236;6.742;2023-09-30T04:31:40;97441.00;;;18.66;50.41
8699;BME280;4386;51.236;6.742;2023-09-30T04:32:45;97445.81;;;18.64;50.65
8699;BME280;4386;51.236;6.742;2023-09-30T04:33:50;97443.94;;;18.64;50.61
8699;BME280;4386;51.236;6.742;2023-09-30T04:34:56;97444.50;;;18.66;50.50
8699;BME280;4386;51.236;6.742;2023-09-30T04:35:59;97445.84;;;18.69;50.56
8699;BME280;4386;51.236;6.742;2023-09-30T04:37:02;97449.63;;;18.68;50.49
8699;BME280;4386;51.236;6.742;2023-09-30T04:38:07;97453.34;;;18.67;50.53
8699;BME280;4386;51.236;6.742;2023-09-30T04:39:11;97450.59;;;18.62;50.54
8699;BME280;4386;51.236;6.742;2023-09-30T04:40:15;97450.56;;;18.57;50.66
8699;BME280;4386;51.236;6.742;2023-09-30T04:41:18;97446.41;;;18.49;50.52
8699;BME280;4386;51.236;6.742;2023-09-30T04:42:23;97447.47;;;18.48;50.80
8699;BME280;4386;51.236;6.742;2023-09-30T04:43:29;97451.28;;;18.52;50.89
8699;BME280;4386;51.236;6.742;2023-09-30T04:44:35;97444.13;;;18.58;50.63
8699;BME280;4386;51.236;6.742;2023-09-30T04:45:40;97441.50;;;18.63;50.50
8699;BME280;4386;51.236;6.742;2023-09-30T04:46:44;97446.84;;;18.63;50.64
8699;BME280;4386;51.236;6.742;2023-09-30T04:47:48;97443.66;;;18.66;50.33
8699;BME280;4386;51.236;6.742;2023-09-30T04:48:53;97443.13;;;18.64;50.48
8699;BME280;4386;51.236;6.742;2023-09-30T04:49:56;97451.41;;;18.62;50.20
8699;BME280;4386;51.236;6.742;2023-09-30T04:51:06;97443.88;;;18.59;50.31
8699;BME280;4386;51.236;6.742;2023-09-30T04:52:11;97447.06;;;18.56;50.47
8699;BME280;4386;51.236;6.742;2023-09-30T04:53:15;97454.28;;;18.56;50.63
8699;BME280;4386;51.236;6.742;2023-09-30T04:54:20;97447.56;;;18.53;50.48
8699;BME280;4386;51.236;6.742;2023-09-30T04:55:24;97447.25;;;18.50;50.42
8699;BME280;4386;51.236;6.742;2023-09-30T04:56:27;97450.16;;;18.48;50.55
8699;BME280;4386;51.236;6.742;2023-09-30T04:57:31;97451.72;;;18.44;50.71
8699;BME280;4386;51.236;6.742;2023-09-30T04:58:35;97451.63;;;18.39;50.73
8699;BME280;4386;51.236;6.742;2023-09-30T04:59:39;97451.31;;;18.36;50.90
8699;BME280;4386;51.236;6.742;2023-09-30T05:00:42;97451.59;;;18.34;50.79
8699;BME280;4386;51.236;6.742;2023-09-30T05:01:46;97444.91;;;18.37;50.86
8699;BME280;4386;51.236;6.742;2023-09-30T05:02:50;97448.97;;;18.39;50.78
8699;BME280;4386;51.236;6.742;2023-09-30T05:03:53;97448.72;;;18.41;50.83
8699;BME280;4386;51.236;6.742;2023-09-30T05:04:58;97446.84;;;18.41;50.69
8699;BME280;4386;51.236;6.742;2023-09-30T05:06:01;97439.31;;;18.38;50.63
8699;BME280;4386;51.236;6.742;2023-09-30T05:07:06;97442.53;;;18.40;50.77
8699;BME280;4386;51.236;6.742;2023-09-30T05:08:08;97438.31;;;18.44;50.60
8699;BME280;4386;51.236;6.742;2023-09-30T05:09:14;97438.16;;;18.51;50.56
8699;BME280;4386;51.236;6.742;2023-09-30T05:10:18;97444.13;;;18.58;50.39
8699;BME280;4386;51.236;6.742;2023-09-30T05:11:22;97446.34;;;18.66;50.49
8699;BME280;4386;51.236;6.742;2023-09-30T05:12:25;97445.91;;;18.74;50.10
8699;BME280;4386;51.236;6.742;2023-09-30T05:13:29;97446.53;;;18.81;50.23
8699;BME280;4386;51.236;6.742;2023-09-30T05:14:35;97446.06;;;18.89;49.90
8699;BME280;4386;51.236;6.742;2023-09-30T05:15:40;97448.81;;;18.94;49.81
8699;BME280;4386;51.236;6.742;2023-09-30T05:16:44;97439.69;;;18.95;49.73
8699;BME280;4386;51.236;6.742;2023-09-30T05:17:49;97444.53;;;18.98;49.39
8699;BME280;4386;51.236;6.742;2023-09-30T05:18:52;97447.22;;;18.98;49.62
8699;BME280;4386;51.236;6.742;2023-09-30T05:19:57;97446.38;;;18.93;49.34
8699;BME280;4386;51.236;6.742;2023-09-30T05:21:00;97446.06;;;18.89;49.71
8699;BME280;4386;51.236;6.742;2023-09-30T05:22:04;97454.91;;;18.85;49.80
8699;BME280;4386;51.236;6.742;2023-09-30T05:23:08;97447.59;;;18.80;49.53
8699;BME280;4386;51.236;6.742;2023-09-30T05:24:15;97452.66;;;18.77;49.69
8699;BME280;4386;51.236;6.742;2023-09-30T05:25:40;97454.78;;;18.75;49.90
8699;BME280;4386;51.236;6.742;2023-09-30T05:26:45;97456.66;;;18.74;49.71
8699;BME280;4386;51.236;6.742;2023-09-30T05:27:48;97452.34;;;18.73;49.69
8699;BME280;4386;51.236;6.742;2023-09-30T05:29:11;97452.66;;;18.77;49.87
8699;BME280;4386;51.236;6.742;2023-09-30T05:30:15;97454.59;;;18.81;49.91
8699;BME280;4386;51.236;6.742;2023-09-30T05:31:40;97462.69;;;18.86;49.96
8699;BME280;4386;51.236;6.742;2023-09-30T05:32:44;97459.75;;;18.88;49.85
8699;BME280;4386;51.236;6.742;2023-09-30T05:33:49;97462.47;;;18.93;50.00
8699;BME280;4386;51.236;6.742;2023-09-30T05:35:11;97462.81;;;19.01;50.02
8699;BME280;4386;51.236;6.742;2023-09-30T05:36:16;97462.38;;;19.09;50.03
8699;BME280;4386;51.236;6.742;2023-09-30T05:37:38;97466.22;;;19.18;49.86
8699;BME280;4386;51.236;6.742;2023-09-30T05:38:42;97464.97;;;19.31;49.56
8699;BME280;4386;51.236;6.742;2023-09-30T05:39:45;97466.75;;;19.47;49.30
8699;BME280;4386;51.236;6.742;2023-09-30T05:41:09;97460.47;;;19.68;48.88
8699;BME280;4386;51.236;6.742;2023-09-30T05:42:12;97467.31;;;19.86;48.77
8699;BME280;4386;51.236;6.742;2023-09-30T05:43:17;97473.59;;;20.02;48.63
8699;BME280;4386;51.236;6.742;2023-09-30T05:44:20;97469.13;;;20.17;48.55
8699;BME280;4386;51.236;6.742;2023-09-30T05:45:26;97469.19;;;20.27;47.68
8699;BME280;4386;51.236;6.742;2023-09-30T05:46:47;97468.16;;;20.34;47.93
8699;BME280;4386;51.236;6.742;2023-09-30T05:47:52;97467.38;;;20.38;47.60
8699;BME280;4386;51.236;6.742;2023-09-30T05:48:56;97461.19;;;20.43;47.70
8699;BME280;4386;51.236;6.742;2023-09-30T05:50:15;97460.41;;;20.47;47.78
8699;BME280;4386;51.236;6.742;2023-09-30T05:51:19;97466.91;;;20.51;47.65
8699;BME280;4386;51.236;6.742;2023-09-30T05:52:41;97465.56;;;20.59;47.57